New Philadelphia, OH

10:33 PM EDT on July 29, 2016 (GMT -0400)
Steele Hill | | Change Station

Elev 942 ft 40.48 °N, 81.48 °W | Updated 12 seconds ago

Light Rain
Light Rain Mist
71.1 °F
Feels Like 71.1 °F
N
0.0
Wind Variable Wind from NW
Gusts 0.0 mph

Today
High -- | Low -- °F
--% Chance of Precip.
Yesterday
High -- | Low -- °F
Precip. -- in
Pressure 29.96 in
Visibility 4.0 miles
Clouds Few 4400 ft
Scattered Clouds 6000 ft
Overcast 10000 ft
Dew Point 69 °F
Humidity 94%
Rainfall 0.07 in
Snow Depth Not available.
6:20 AM 8:43 PM
Waning Crescent, 17% visible
METAR KPHD 300153Z AUTO 16004KT 4SM -RA BR FEW044 SCT060 OVC100 23/21 A2998 RMK AO2 SLP146 P0010 T02280206
Pressure 29.96 in
Visibility 4.0 miles
Clouds Few 4400 ft
Scattered Clouds 6000 ft
Overcast 10000 ft
Dew Point 69 °F
Humidity 94%
Rainfall 0.07 in
Snow Depth Not available.
6:20 AM 8:43 PM
Waning Crescent, 17% visible
METAR KPHD 300153Z AUTO 16004KT 4SM -RA BR FEW044 SCT060 OVC100 23/21 A2998 RMK AO2 SLP146 P0010 T02280206

10-Day Weather Forecast

Almanac

Astronomy

Jul. 29, 2016 Rise Set
Actual Time
Civil Twilight
Nautical Twilight
Astronomical Twilight
Moon
Length of Visible Light
Length of Day
Tomorrow will be .
, % of the Moon is Illuminated

Today's Extremes

State Highs State Lows

Community

WunderPhotos

Upload Photos

1,928,488 photos uploaded!

WunderBlog® & News

Nearby

Air Quality

  Air Quality AQ Index Pollutant
Not available.

Snow Depth

Station Depth Elevation

Earthquake Activity

City Distance Mag. Time & Date
Minimum magnitude displayed is 2.5.

Coastal Water Temperatures

Place Temperature

Stations

Nearby Weather Stations

Station Location Temp. Windchill Dew Point Humidity Wind Precip. Elev Updated Type
                   

Watches & Warnings

There are currently no watches in effect.